Time;durP1;ratioP1;P1;durP2;ratioP2;P2;SDS_P1;SDS_P2;PMS_P1;PMS_P2;Temp;Humidity;BMP_temperature;BMP_pressure;BME280_temperature;BME280_humidity;BME280_pressure;Samples;Min_cycle;Max_cycle;Signal;HPM_P1;HPM_P2
2021/06/27 00:01:24;;;;;;;3.63;1.98;;;;;;;13.06;74.52;101668.81;5059236;28;20123;-41
2021/06/27 00:03:52;;;;;;;8.88;3.28;;;;;;;13.06;74.39;101664.06;5062617;28;20071;-42
2021/06/27 00:06:20;;;;;;;6.10;3.15;;;;;;;13.06;74.49;101663.25;5078372;28;20139;-41
2021/06/27 00:08:48;;;;;;;9.48;3.28;;;;;;;13.04;74.39;101662.78;5069760;28;20087;-42
2021/06/27 00:11:16;;;;;;;3.03;1.95;;;;;;;13.03;74.46;101658.34;5058162;28;20398;-41
2021/06/27 00:13:46;;;;;;;8.43;2.80;;;;;;;12.97;74.55;101649.44;5049484;28;20056;-39
2021/06/27 00:16:14;;;;;;;6.22;2.83;;;;;;;12.99;74.48;101657.41;5050571;28;20079;-39
2021/06/27 00:18:41;;;;;;;7.63;2.45;;;;;;;12.98;74.81;101653.81;5059924;28;20703;-39
2021/06/27 00:21:11;;;;;;;103.50;40.50;;;;;;;12.95;74.62;101646.16;5068665;28;20067;-39
2021/06/27 00:23:41;;;;;;;12.38;6.15;;;;;;;12.96;74.35;101647.78;5061598;28;20067;-40
2021/06/27 00:26:11;;;;;;;8.80;4.05;;;;;;;12.94;74.35;101647.31;5058937;28;20488;-39
2021/06/27 00:28:38;;;;;;;8.43;4.57;;;;;;;12.93;74.39;101647.66;5071335;28;20048;-40
2021/06/27 00:31:05;;;;;;;8.75;4.50;;;;;;;12.91;74.36;101636.06;5076969;28;20108;-42
2021/06/27 00:33:32;;;;;;;7.78;2.60;;;;;;;12.86;74.52;101641.84;5062173;28;20040;-39
2021/06/27 00:35:59;;;;;;;4.07;1.88;;;;;;;12.84;74.37;101645.75;5078603;28;20036;-40
2021/06/27 00:38:26;;;;;;;5.78;2.45;;;;;;;12.87;74.67;101647.03;5061348;28;20050;-41
2021/06/27 00:40:53;;;;;;;6.30;2.10;;;;;;;12.84;74.69;101651.31;5062300;28;20478;-41
2021/06/27 00:43:21;;;;;;;4.38;1.70;;;;;;;12.82;74.87;101648.06;5055737;28;20104;-39
2021/06/27 00:45:48;;;;;;;11.00;2.13;;;;;;;12.83;74.77;101644.13;5059259;28;20064;-39
2021/06/27 00:48:15;;;;;;;5.22;2.10;;;;;;;12.82;75.09;101642.50;5070018;28;20040;-40
2021/06/27 00:50:45;;;;;;;7.25;2.42;;;;;;;12.77;75.05;101637.16;5061379;28;20463;-39
2021/06/27 00:53:13;;;;;;;5.70;2.67;;;;;;;12.78;74.98;101636.00;5053771;28;20037;-40
2021/06/27 00:55:41;;;;;;;6.85;2.60;;;;;;;12.79;74.98;101636.81;5058782;28;20048;-42
2021/06/27 00:58:09;;;;;;;8.38;2.45;;;;;;;12.79;74.88;101637.63;5055613;28;20045;-41
2021/06/27 01:00:41;;;;;;;9.35;2.90;;;;;;;12.77;74.96;101639.09;5055489;28;20375;-40
2021/06/27 01:03:09;;;;;;;7.50;2.70;;;;;;;12.73;75.08;101638.97;5059193;28;20497;-40
2021/06/27 01:05:38;;;;;;;10.20;3.40;;;;;;;12.72;75.11;101631.78;5067539;28;20557;-40
2021/06/27 01:08:07;;;;;;;19.80;5.85;;;;;;;12.71;75.13;101632.94;5058010;28;20068;-39
2021/06/27 01:10:35;;;;;;;6.60;2.92;;;;;;;12.70;75.19;101628.56;5050506;28;20076;-40
2021/06/27 01:13:03;;;;;;;10.23;2.78;;;;;;;12.68;75.13;101625.28;5051530;28;20044;-40
2021/06/27 01:15:30;;;;;;;4.15;2.58;;;;;;;12.68;75.15;101630.81;5054077;28;20123;-40
2021/06/27 01:17:57;;;;;;;5.72;2.90;;;;;;;12.68;75.17;101630.03;5055504;28;20072;-39
2021/06/27 01:20:30;;;;;;;7.00;2.85;;;;;;;12.66;75.16;101626.75;5058714;28;20075;-40
2021/06/27 01:23:00;;;;;;;3.88;2.33;;;;;;;12.65;75.25;101620.41;5069259;28;20033;-40
2021/06/27 01:25:35;;;;;;;6.03;2.65;;;;;;;12.65;75.32;101627.94;5060512;28;20041;-40
2021/06/27 01:28:03;;;;;;;5.65;2.65;;;;;;;12.65;75.12;101617.63;5056824;28;20600;-40
2021/06/27 01:30:31;;;;;;;8.55;2.78;;;;;;;12.58;75.16;101622.91;5077551;28;20067;-39
2021/06/27 01:33:03;;;;;;;10.02;3.15;;;;;;;12.57;75.35;101618.50;5058375;28;20055;-40
2021/06/27 01:35:30;;;;;;;5.78;2.75;;;;;;;12.53;75.34;101617.53;5083968;28;20071;-39
2021/06/27 01:37:58;;;;;;;5.82;2.60;;;;;;;12.53;75.55;101617.53;5074585;28;20110;-39
2021/06/27 01:40:27;;;;;;;12.50;4.60;;;;;;;12.54;75.58;101608.06;5058897;28;20507;-40
2021/06/27 01:43:05;;;;;;;4.63;2.13;;;;;;;12.50;75.54;101604.31;5063449;28;20090;-40
2021/06/27 01:45:32;;;;;;;6.25;3.28;;;;;;;12.46;75.55;101611.72;5058484;28;20083;-40
2021/06/27 01:48:05;;;;;;;4.07;2.50;;;;;;;12.45;75.60;101604.53;5059485;28;20492;-40
2021/06/27 01:50:33;;;;;;;8.80;2.80;;;;;;;12.50;75.62;101606.28;5054025;28;20033;-40
2021/06/27 01:53:01;;;;;;;9.85;4.18;;;;;;;12.50;75.54;101606.28;5054215;28;20049;-40
2021/06/27 01:55:28;;;;;;;5.18;2.22;;;;;;;12.52;75.77;101604.00;5070962;28;20048;-39
2021/06/27 01:57:55;;;;;;;7.20;2.15;;;;;;;12.51;75.78;101605.16;5063870;28;20693;-39
2021/06/27 02:00:24;;;;;;;9.52;2.47;;;;;;;12.51;75.92;101603.19;5062560;28;20457;-39
2021/06/27 02:02:51;;;;;;;3.80;2.33;;;;;;;12.51;75.89;101607.91;5063829;28;20517;-40
2021/06/27 02:05:18;;;;;;;10.73;3.53;;;;;;;12.50;76.07;101612.66;5064699;28;20483;-40
2021/06/27 02:07:46;;;;;;;6.25;2.70;;;;;;;12.49;76.01;101608.28;5073869;28;20071;-40
2021/06/27 02:10:18;;;;;;;8.75;4.15;;;;;;;12.49;76.04;101604.69;5057346;28;20040;-39
2021/06/27 02:12:46;;;;;;;6.47;2.53;;;;;;;12.52;76.13;101609.56;5070192;28;20042;-40
2021/06/27 02:15:13;;;;;;;11.25;3.22;;;;;;;12.51;75.92;101605.16;5054933;28;20098;-40
2021/06/27 02:18:02;;;;;;;40.70;19.10;;;;;;;12.47;76.07;101602.22;5056395;28;20048;-40
2021/06/27 02:20:29;;;;;;;7.35;4.15;;;;;;;12.46;75.95;101600.63;5063752;28;20033;-39
2021/06/27 02:22:56;;;;;;;6.15;3.05;;;;;;;12.46;76.08;101594.25;5078688;28;20047;-40
2021/06/27 02:25:23;;;;;;;7.00;3.40;;;;;;;12.47;75.87;101595.88;5062620;28;20052;-40
2021/06/27 02:27:52;;;;;;;6.57;2.65;;;;;;;12.46;75.84;101588.69;5059499;28;20036;-40
2021/06/27 02:30:20;;;;;;;3.28;2.83;;;;;;;12.42;75.53;101582.16;5069029;28;20528;-40
2021/06/27 02:32:47;;;;;;;5.88;2.80;;;;;;;12.40;75.97;101578.91;5075198;28;20159;-39
2021/06/27 02:35:14;;;;;;;6.30;3.03;;;;;;;12.41;75.82;101581.38;5079905;28;20131;-40
2021/06/27 02:37:42;;;;;;;5.60;3.28;;;;;;;12.38;75.88;101587.59;5078618;28;20087;-40
2021/06/27 02:40:12;;;;;;;5.55;3.55;;;;;;;12.32;76.13;101593.66;5066764;28;20534;-40
2021/06/27 02:42:40;;;;;;;7.05;2.85;;;;;;;12.33;75.92;101596.13;5063824;28;20037;-40
2021/06/27 02:45:09;;;;;;;7.95;4.07;;;;;;;12.32;76.07;101594.47;5069838;28;20085;-41
2021/06/27 02:47:36;;;;;;;5.28;3.22;;;;;;;12.30;75.96;101596.78;5071847;28;20051;-41
2021/06/27 02:50:06;;;;;;;5.30;3.17;;;;;;;12.27;76.06;101593.88;5072601;28;20056;-39
2021/06/27 02:52:33;;;;;;;8.00;3.25;;;;;;;12.22;75.93;101600.44;5072976;28;20051;-39
2021/06/27 02:55:01;;;;;;;7.80;4.70;;;;;;;12.21;76.10;101604.34;5062287;28;20080;-40
2021/06/27 02:57:29;;;;;;;3.85;3.13;;;;;;;12.25;75.66;101599.75;5056879;28;20072;-40
2021/06/27 02:59:56;;;;;;;8.02;3.15;;;;;;;12.26;75.59;101604.16;5059010;28;20120;-40
2021/06/27 03:02:23;;;;;;;4.72;3.47;;;;;;;12.27;75.33;101597.47;5062685;28;20123;-40
2021/06/27 03:04:50;;;;;;;8.85;4.22;;;;;;;12.24;75.45;101595.34;5058830;28;20135;-40
2021/06/27 03:07:16;;;;;;;5.78;3.72;;;;;;;12.19;75.51;101595.53;5069502;28;20075;-39
2021/06/27 03:09:43;;;;;;;5.25;4.47;;;;;;;12.15;75.49;101602.94;5060689;28;20553;-39
2021/06/27 03:12:12;;;;;;;4.82;3.33;;;;;;;12.12;75.62;101595.28;5056263;28;20098;-40
2021/06/27 03:14:39;;;;;;;8.20;4.00;;;;;;;12.06;75.61;101585.50;5057997;28;20091;-40
2021/06/27 03:17:05;;;;;;;6.82;3.75;;;;;;;12.03;75.82;101589.75;5072196;28;20124;-39
2021/06/27 03:19:32;;;;;;;6.38;4.00;;;;;;;11.96;75.91;101591.44;5071826;28;20044;-40
2021/06/27 03:21:59;;;;;;;6.00;4.10;;;;;;;11.95;76.00;101592.56;5070031;28;20044;-40
2021/06/27 03:24:26;;;;;;;7.35;3.85;;;;;;;11.95;75.77;101593.38;5075124;28;20059;-40
2021/06/27 03:26:53;;;;;;;8.43;3.95;;;;;;;11.91;75.89;101589.66;5071135;28;20079;-40
2021/06/27 03:29:19;;;;;;;7.60;4.30;;;;;;;11.93;75.96;101603.19;5076166;28;20406;-41
2021/06/27 03:31:46;;;;;;;6.93;3.90;;;;;;;11.93;76.47;101597.66;5074602;28;20078;-39
2021/06/27 03:34:13;;;;;;;8.23;4.38;;;;;;;11.96;76.38;101597.81;5072013;28;20091;-40
2021/06/27 03:36:40;;;;;;;9.75;5.35;;;;;;;12.01;76.46;101588.47;5061715;28;20045;-39
2021/06/27 03:39:09;;;;;;;7.25;3.75;;;;;;;12.02;76.61;101590.91;5067548;28;20139;-40
2021/06/27 03:41:46;;;;;;;5.75;4.50;;;;;;;12.06;76.50;101596.59;5072186;28;20581;-40
2021/06/27 03:44:13;;;;;;;8.85;4.43;;;;;;;12.07;76.45;101593.47;5059420;28;20044;-40
2021/06/27 03:46:39;;;;;;;7.20;4.72;;;;;;;12.07;76.20;101587.94;5061871;28;20127;-39
2021/06/27 03:49:06;;;;;;;79.03;28.10;;;;;;;12.01;76.60;101588.47;5063450;28;20135;-39
2021/06/27 03:51:33;;;;;;;26.25;11.48;;;;;;;11.97;76.31;101584.72;5066620;28;20115;-40
2021/06/27 03:54:00;;;;;;;14.90;6.50;;;;;;;11.88;76.33;101583.97;5069008;28;20072;-40
2021/06/27 03:56:27;;;;;;;13.13;6.43;;;;;;;11.82;76.22;101582.50;5058627;28;20127;-40
2021/06/27 03:58:54;;;;;;;9.65;4.50;;;;;;;11.79;76.37;101580.41;5056169;28;20086;-40
2021/06/27 04:01:21;;;;;;;10.30;4.53;;;;;;;11.76;76.20;101581.88;5059270;28;20078;-40
2021/06/27 04:03:48;;;;;;;7.30;4.70;;;;;;;11.72;76.60;101574.56;5059782;28;20044;-40
2021/06/27 04:06:15;;;;;;;6.72;4.05;;;;;;;11.70;76.24;101576.88;5067573;28;20524;-40
2021/06/27 04:08:42;;;;;;;7.82;3.85;;;;;;;11.70;76.34;101565.78;5065985;28;20522;-39
2021/06/27 04:11:09;;;;;;;12.18;5.30;;;;;;;11.73;76.17;101570.66;5070371;28;20127;-40
2021/06/27 04:13:36;;;;;;;4.65;3.70;;;;;;;11.69;75.99;101583.53;5061326;28;20076;-39
2021/06/27 04:16:05;;;;;;;6.75;3.63;;;;;;;11.70;76.19;101576.88;5067860;28;20132;-39
2021/06/27 04:18:34;;;;;;;8.70;4.70;;;;;;;11.77;76.16;101579.91;5062898;28;20045;-39
2021/06/27 04:21:01;;;;;;;13.52;4.63;;;;;;;11.77;75.95;101577.97;5064804;28;20037;-40
2021/06/27 04:23:30;;;;;;;5.68;4.38;;;;;;;11.77;76.13;101579.91;5071902;28;20049;-40
2021/06/27 04:25:57;;;;;;;7.05;4.47;;;;;;;11.78;76.29;101582.34;5058375;28;20037;-40
2021/06/27 04:28:24;;;;;;;9.98;4.30;;;;;;;11.80;76.58;101576.50;5065250;28;20040;-40
2021/06/27 04:30:51;;;;;;;13.13;5.32;;;;;;;11.82;76.36;101585.28;5072234;28;20088;-40
2021/06/27 04:33:18;;;;;;;10.45;5.53;;;;;;;11.87;76.51;101576.78;5056347;28;20037;-40
2021/06/27 04:35:45;;;;;;;10.63;5.50;;;;;;;11.91;76.50;101580.53;5079674;28;20131;-40
2021/06/27 04:38:17;;;;;;;8.82;4.53;;;;;;;11.89;76.48;101580.84;5065862;28;20080;-40
2021/06/27 04:40:44;;;;;;;9.50;4.97;;;;;;;11.90;76.42;101576.09;5063314;28;20044;-40
2021/06/27 04:43:11;;;;;;;8.55;5.20;;;;;;;11.91;76.54;101577.75;5066003;28;20127;-40
2021/06/27 04:45:40;;;;;;;8.23;4.90;;;;;;;11.92;76.63;101576.59;5070747;28;20464;-40
2021/06/27 04:48:08;;;;;;;6.70;4.65;;;;;;;11.90;76.47;101565.81;5066566;28;20045;-40
2021/06/27 04:50:36;;;;;;;8.82;4.55;;;;;;;11.93;76.53;101564.34;5064802;28;20493;-40
2021/06/27 04:53:04;;;;;;;7.97;4.80;;;;;;;11.93;76.61;101565.16;5065062;28;20545;-40
2021/06/27 04:55:31;;;;;;;9.63;4.05;;;;;;;11.96;76.80;101563.69;5069645;28;20123;-40
2021/06/27 04:57:58;;;;;;;11.05;5.75;;;;;;;12.01;76.68;101561.53;5054518;28;20064;-39
2021/06/27 05:00:29;;;;;;;7.43;5.00;;;;;;;12.06;76.68;101563.28;5052179;28;20025;-40
2021/06/27 05:02:57;;;;;;;6.57;4.72;;;;;;;12.06;76.37;101563.28;5066267;28;20395;-40
2021/06/27 05:05:24;;;;;;;6.95;3.63;;;;;;;12.06;76.34;101566.88;5053054;28;20028;-40
2021/06/27 05:07:50;;;;;;;7.63;4.40;;;;;;;12.10;76.38;101564.22;5069334;28;20481;-39
2021/06/27 05:10:17;;;;;;;8.77;3.95;;;;;;;12.11;76.48;101568.66;5060653;28;20068;-40
2021/06/27 05:12:44;;;;;;;10.00;5.75;;;;;;;12.14;76.39;101566.03;5065399;28;20032;-40
2021/06/27 05:15:12;;;;;;;6.18;4.28;;;;;;;12.20;76.16;101563.88;5051088;28;20090;-40
2021/06/27 05:17:39;;;;;;;9.48;4.20;;;;;;;12.16;76.32;101557.34;5065008;28;20122;-40
2021/06/27 05:20:06;;;;;;;7.78;3.83;;;;;;;12.20;76.64;101561.09;5058687;28;20050;-41
2021/06/27 05:22:33;;;;;;;7.78;4.03;;;;;;;12.23;76.47;101557.66;5072986;28;20572;-40
2021/06/27 05:25:00;;;;;;;15.27;7.07;;;;;;;12.29;76.35;101564.63;5060971;28;20098;-40
2021/06/27 05:27:27;;;;;;;8.30;3.88;;;;;;;12.33;76.35;101567.53;5059997;28;20131;-40
2021/06/27 05:29:54;;;;;;;7.80;4.00;;;;;;;12.38;76.59;101568.16;5087071;28;20044;-40
2021/06/27 05:32:21;;;;;;;6.40;3.42;;;;;;;12.46;76.52;101566.47;5079186;28;20067;-40
2021/06/27 05:34:48;;;;;;;8.63;4.47;;;;;;;12.51;76.46;101558.75;5081375;28;20032;-40
2021/06/27 05:37:18;;;;;;;9.45;4.22;;;;;;;12.57;76.36;101562.97;5081183;28;20385;-40
2021/06/27 05:39:46;;;;;;;7.30;4.32;;;;;;;12.63;76.61;101567.13;5071135;28;20436;-40
2021/06/27 05:42:14;;;;;;;11.15;5.47;;;;;;;12.69;76.64;101568.56;5074455;28;20131;-41
2021/06/27 05:44:40;;;;;;;6.38;3.58;;;;;;;12.73;76.65;101566.72;5057386;28;20041;-40
2021/06/27 05:47:07;;;;;;;7.53;4.80;;;;;;;12.81;76.76;101567.81;5061086;28;20035;-40
2021/06/27 05:49:34;;;;;;;9.98;3.85;;;;;;;12.84;76.55;101567.13;5083041;28;20040;-40
2021/06/27 05:52:01;;;;;;;7.03;3.60;;;;;;;12.87;76.49;101565.66;5073543;28;20454;-40
2021/06/27 05:54:28;;;;;;;5.88;3.63;;;;;;;12.87;76.73;101562.88;5067214;28;20048;-40
2021/06/27 05:56:55;;;;;;;9.25;4.25;;;;;;;12.92;76.68;101557.09;5070145;28;20071;-40
2021/06/27 05:59:22;;;;;;;6.85;3.95;;;;;;;12.95;76.65;101561.94;5054369;28;20127;-40
2021/06/27 06:01:49;;;;;;;5.75;3.42;;;;;;;12.99;76.60;101557.34;5062303;28;20079;-40
2021/06/27 06:04:15;;;;;;;7.32;3.50;;;;;;;13.03;76.61;101563.84;5057597;28;20115;-40
2021/06/27 06:06:43;;;;;;;6.90;3.67;;;;;;;13.08;76.70;101561.69;5076364;28;20581;-41
2021/06/27 06:09:10;;;;;;;7.80;3.72;;;;;;;13.12;76.31;101564.63;5056980;28;20447;-40
2021/06/27 06:11:36;;;;;;;4.38;3.00;;;;;;;13.17;76.29;101565.22;5060582;28;20052;-43
2021/06/27 06:14:05;;;;;;;7.68;3.33;;;;;;;13.24;76.30;101570.19;5070773;28;20039;-40
2021/06/27 06:16:32;;;;;;;6.10;3.20;;;;;;;13.30;76.31;101568.84;5073182;28;20052;-41
2021/06/27 06:18:59;;;;;;;7.97;3.40;;;;;;;13.31;76.19;101564.91;5056148;28;20091;-40
2021/06/27 06:21:25;;;;;;;8.32;4.40;;;;;;;13.32;76.15;101560.94;5072519;28;20044;-40
2021/06/27 06:23:52;;;;;;;6.88;3.08;;;;;;;13.32;76.15;101555.38;5072408;28;20071;-40
2021/06/27 06:26:19;;;;;;;6.57;3.08;;;;;;;13.38;76.13;101556.81;5063431;28;20119;-40
2021/06/27 06:28:46;;;;;;;8.38;3.38;;;;;;;13.40;76.23;101562.81;5069448;28;20041;-41
2021/06/27 06:31:13;;;;;;;7.80;3.33;;;;;;;13.41;76.26;101565.28;5064963;28;20079;-41
2021/06/27 06:33:40;;;;;;;5.53;3.38;;;;;;;13.41;76.11;101556.94;5081343;28;20557;-40
2021/06/27 06:36:07;;;;;;;8.60;3.85;;;;;;;13.48;76.24;101556.34;5079071;28;20046;-40
2021/06/27 06:38:35;;;;;;;9.98;3.92;;;;;;;13.49;75.89;101559.94;5059435;28;20098;-39
2021/06/27 06:41:02;;;;;;;7.22;3.10;;;;;;;13.49;76.08;101559.94;5069424;28;20128;-40
2021/06/27 06:43:28;;;;;;;11.95;3.30;;;;;;;13.54;75.78;101563.31;5063824;28;20048;-41
2021/06/27 06:45:57;;;;;;;4.45;3.30;;;;;;;13.61;75.59;101558.00;5072105;28;20148;-40
2021/06/27 06:48:24;;;;;;;4.50;2.50;;;;;;;13.66;75.65;101557.75;5067347;28;20409;-40
2021/06/27 06:50:50;;;;;;;6.03;3.35;;;;;;;13.72;75.58;101564.75;5078050;28;20080;-40
2021/06/27 06:53:17;;;;;;;5.18;2.80;;;;;;;13.76;75.61;101559.31;5067526;28;20048;-40
2021/06/27 06:55:47;;;;;;;7.28;4.63;;;;;;;13.79;75.61;101558.63;5063847;28;20076;-41
2021/06/27 06:58:13;;;;;;;4.63;2.78;;;;;;;13.83;75.49;101559.53;5062624;28;20593;-39
2021/06/27 07:00:40;;;;;;;8.90;3.30;;;;;;;13.79;75.49;101562.19;5065925;28;20064;-40
2021/06/27 07:03:08;;;;;;;7.50;3.40;;;;;;;13.72;75.31;101564.75;5064603;28;20543;-40
2021/06/27 07:05:35;;;;;;;8.25;3.58;;;;;;;13.70;75.52;101558.72;5068824;28;20090;-40
2021/06/27 07:08:02;;;;;;;4.97;2.90;;;;;;;13.70;75.51;101553.16;5066375;28;20075;-40
2021/06/27 07:10:29;;;;;;;9.45;3.60;;;;;;;13.69;75.67;101554.28;5062285;28;20048;-42
2021/06/27 07:12:56;;;;;;;9.15;4.78;;;;;;;13.70;75.60;101553.16;5071646;28;20045;-41
2021/06/27 07:15:23;;;;;;;7.25;4.40;;;;;;;13.75;75.91;101547.34;5063291;28;20049;-40
2021/06/27 07:17:50;;;;;;;7.25;3.15;;;;;;;13.84;75.82;101550.84;5070985;28;20044;-41
2021/06/27 07:20:19;;;;;;;4.72;2.33;;;;;;;13.91;75.70;101559.41;5062078;28;20071;-41
2021/06/27 07:22:48;;;;;;;6.82;2.40;;;;;;;13.96;75.71;101553.63;5066367;28;20081;-40
2021/06/27 07:25:14;;;;;;;8.40;3.13;;;;;;;14.03;75.76;101553.06;5058477;28;20059;-40
2021/06/27 07:27:41;;;;;;;11.25;4.00;;;;;;;14.10;75.83;101558.84;5063950;28;20140;-41
2021/06/27 07:30:09;;;;;;;4.03;2.50;;;;;;;14.16;75.90;101556.63;5082870;28;20139;-42
2021/06/27 07:32:36;;;;;;;5.72;2.38;;;;;;;14.22;75.68;101555.22;5070198;28;20036;-40
2021/06/27 07:35:04;;;;;;;3.95;2.40;;;;;;;14.25;75.77;101557.28;5079827;28;20557;-40
2021/06/27 07:37:43;;;;;;;2.53;2.22;;;;;;;14.30;75.76;101557.88;5062423;28;20496;-42
2021/06/27 07:40:10;;;;;;;6.10;2.75;;;;;;;14.34;75.73;101555.25;5068160;28;20053;-41
2021/06/27 07:42:37;;;;;;;3.10;2.63;;;;;;;14.34;75.62;101555.25;5062020;28;20547;-41
2021/06/27 07:45:05;;;;;;;5.55;2.97;;;;;;;14.42;75.67;101554.28;5055500;28;20139;-43
2021/06/27 07:47:32;;;;;;;4.57;2.22;;;;;;;14.51;75.38;101561.34;5054199;28;20057;-42
2021/06/27 07:50:04;;;;;;;3.88;2.03;;;;;;;14.58;75.03;101555.19;5078326;28;20036;-41
2021/06/27 07:52:30;;;;;;;4.20;2.17;;;;;;;14.63;75.02;101555.75;5062213;28;20036;-40
2021/06/27 07:54:57;;;;;;;5.88;2.30;;;;;;;14.65;74.84;101549.81;5053348;28;20071;-41
2021/06/27 07:57:24;;;;;;;5.85;2.90;;;;;;;14.71;74.76;101544.81;5067841;28;20048;-41
2021/06/27 07:59:51;;;;;;;7.90;2.33;;;;;;;14.81;74.73;101559.06;5060997;28;20115;-41
2021/06/27 08:02:18;;;;;;;7.60;3.00;;;;;;;14.89;74.73;101563.69;5057269;28;20498;-41
2021/06/27 08:04:45;;;;;;;4.57;2.30;;;;;;;14.91;74.40;101563.31;5071577;28;20456;-40
2021/06/27 08:07:12;;;;;;;5.63;1.90;;;;;;;14.92;74.56;101564.94;5065463;28;20059;-41
2021/06/27 08:09:39;;;;;;;7.88;2.13;;;;;;;14.96;74.36;101558.28;5058111;28;20076;-42
2021/06/27 08:12:06;;;;;;;8.88;2.40;;;;;;;14.99;74.31;101559.56;5070350;28;20508;-40
2021/06/27 08:14:33;;;;;;;6.82;2.88;;;;;;;14.98;74.12;101566.31;5070636;28;20143;-41
2021/06/27 08:17:00;;;;;;;4.13;1.88;;;;;;;15.01;73.85;101558.03;5060698;28;20041;-40
2021/06/27 08:19:27;;;;;;;4.47;2.15;;;;;;;15.03;73.99;101569.66;5058598;28;20054;-41
2021/06/27 08:21:54;;;;;;;6.32;2.05;;;;;;;15.06;73.74;101568.94;5073358;28;20075;-41
2021/06/27 08:24:20;;;;;;;5.25;2.40;;;;;;;15.09;73.54;101561.84;5062306;28;20085;-41
2021/06/27 08:26:49;;;;;;;7.45;2.10;;;;;;;15.13;73.62;101565.53;5062072;28;20395;-42
2021/06/27 08:29:17;;;;;;;7.90;2.47;;;;;;;15.16;73.52;101562.88;5065626;28;20767;-41
2021/06/27 08:31:44;;;;;;;7.72;2.53;;;;;;;15.17;73.37;101558.88;5056030;28;20124;-43
2021/06/27 08:34:10;;;;;;;2.88;2.20;;;;;;;15.18;73.30;101552.16;5057543;28;20037;-41
2021/06/27 08:36:38;;;;;;;7.03;2.50;;;;;;;15.22;73.23;101543.91;5056113;28;20125;-42
2021/06/27 08:39:06;;;;;;;4.72;2.45;;;;;;;15.27;73.51;101545.59;5045613;28;20076;-42
2021/06/27 08:41:33;;;;;;;8.07;2.30;;;;;;;15.34;73.25;101545.78;5057035;28;20422;-42
2021/06/27 08:44:01;;;;;;;5.28;2.00;;;;;;;15.46;73.22;101537.38;5046891;28;20052;-44
2021/06/27 08:46:34;;;;;;;10.82;2.65;;;;;;;15.54;73.00;101545.56;5053058;28;20079;-43
2021/06/27 08:49:03;;;;;;;2.75;1.85;;;;;;;15.59;72.91;101538.91;5063137;28;20449;-42
2021/06/27 08:51:42;;;;;;;5.75;1.90;;;;;;;15.70;72.77;101540.78;5054426;28;20041;-43
2021/06/27 08:54:11;;;;;;;4.00;1.75;;;;;;;15.90;72.64;101536.09;5054449;28;20048;-44
2021/06/27 08:56:39;;;;;;;2.90;1.55;;;;;;;15.94;72.29;101537.00;5048896;28;20049;-41
2021/06/27 09:19:53;;;;;;;4.93;1.60;;;;;;;16.70;69.14;101521.59;4953243;23;20120;-41
2021/06/27 09:22:22;;;;;;;4.75;2.45;;;;;;;16.72;70.20;101520.03;5007429;28;20092;-41
2021/06/27 09:24:50;;;;;;;2.80;1.70;;;;;;;16.80;69.74;101509.81;5004482;28;20045;-41
2021/06/27 09:27:23;;;;;;;5.13;1.77;;;;;;;16.97;69.72;101514.97;5004722;28;20117;-49
2021/06/27 09:29:51;;;;;;;3.92;1.98;;;;;;;17.08;69.37;101510.34;5003518;28;20137;-41
2021/06/27 09:32:24;;;;;;;4.57;1.65;;;;;;;17.13;68.54;101515.63;5008039;28;20049;-42
2021/06/27 09:34:51;;;;;;;2.13;1.60;;;;;;;17.33;68.78;101513.63;5008835;28;20561;-41
2021/06/27 09:37:29;;;;;;;2.67;1.58;;;;;;;17.46;67.43;101515.06;5007566;28;20590;-42
2021/06/27 09:40:01;;;;;;;4.45;1.58;;;;;;;17.45;67.76;101510.63;5007400;28;20049;-42
2021/06/27 09:42:30;;;;;;;4.15;2.03;;;;;;;17.45;67.02;101508.63;5009769;28;20053;-43
2021/06/27 09:45:02;;;;;;;3.85;1.48;;;;;;;17.49;66.75;101509.53;5009926;28;20601;-41
2021/06/27 09:47:28;;;;;;;5.10;1.60;;;;;;;17.53;67.07;101510.41;5010155;28;20053;-43
2021/06/27 09:49:55;;;;;;;3.03;1.48;;;;;;;17.60;66.72;101507.75;5009014;28;21029;-41
2021/06/27 09:52:39;;;;;;;3.78;1.80;;;;;;;17.57;66.07;101514.09;5012997;28;20108;-42
2021/06/27 09:55:14;;;;;;;6.32;1.90;;;;;;;17.56;66.13;101512.47;5007935;28;20050;-41
2021/06/27 09:57:41;;;;;;;4.88;2.05;;;;;;;17.56;66.23;101511.66;5009590;28;20809;-42
2021/06/27 10:00:30;;;;;;;5.57;1.63;;;;;;;17.55;65.38;101508.03;5006138;28;20058;-42
2021/06/27 10:02:59;;;;;;;4.70;1.83;;;;;;;17.49;65.62;101503.94;4997893;28;20490;-42
2021/06/27 10:05:26;;;;;;;2.08;1.73;;;;;;;17.46;65.63;101496.28;5009550;28;20129;-41
2021/06/27 10:07:53;;;;;;;2.67;1.60;;;;;;;17.43;65.52;101501.78;4998629;28;20129;-42
2021/06/27 10:10:20;;;;;;;2.80;1.92;;;;;;;17.41;65.64;101504.97;5007133;23;20127;-39
2021/06/27 10:12:47;;;;;;;3.85;1.45;;;;;;;17.46;65.78;101507.47;5008191;28;20160;-40
2021/06/27 10:15:15;;;;;;;3.90;1.45;;;;;;;17.52;65.66;101499.56;5011360;28;20049;-40
2021/06/27 10:17:44;;;;;;;2.80;1.58;;;;;;;17.53;65.62;101504.81;5010195;28;20173;-40
2021/06/27 10:20:15;;;;;;;3.30;1.52;;;;;;;17.50;65.56;101502.72;5010276;28;20494;-40
2021/06/27 10:22:43;;;;;;;5.28;1.92;;;;;;;17.49;65.49;101509.53;5006614;28;20121;-39
2021/06/27 10:25:14;;;;;;;3.55;1.77;;;;;;;17.58;65.35;101514.88;5005943;28;20140;-44
2021/06/27 10:27:42;;;;;;;3.15;1.42;;;;;;;17.52;65.59;101511.59;5006381;28;20042;-40
2021/06/27 10:30:11;;;;;;;6.25;2.17;;;;;;;17.60;65.28;101504.97;5010077;28;20152;-39
2021/06/27 10:32:43;;;;;;;5.47;1.70;;;;;;;17.76;65.19;101506.81;5008721;28;20046;-42
2021/06/27 10:35:12;;;;;;;3.30;1.58;;;;;;;17.89;65.34;101508.22;5006088;28;20045;-39
2021/06/27 10:37:42;;;;;;;3.05;1.48;;;;;;;17.97;64.90;101509.94;5010481;28;20045;-44
2021/06/27 10:40:19;;;;;;;4.05;1.80;;;;;;;18.03;64.09;101502.84;5007329;28;20045;-39
2021/06/27 10:42:48;;;;;;;3.17;1.52;;;;;;;18.02;64.01;101506.81;5009687;28;20041;-40
2021/06/27 10:45:20;;;;;;;2.15;1.35;;;;;;;18.08;63.85;101502.50;5006891;28;20077;-39
2021/06/27 10:47:48;;;;;;;2.03;1.23;;;;;;;18.23;64.44;101501.53;5008899;28;20041;-39
2021/06/27 10:50:17;;;;;;;2.45;1.30;;;;;;;18.39;63.67;101498.53;5007238;28;20506;-40
2021/06/27 10:52:55;;;;;;;2.78;1.23;;;;;;;18.65;62.51;101507.72;5010569;28;20049;-40
2021/06/27 10:55:40;;;;;;;1.63;1.45;;;;;;;18.99;62.61;101499.28;5008450;28;20426;-41
2021/06/27 10:58:19;;;;;;;4.57;1.08;;;;;;;19.21;62.36;101484.31;5008382;28;20061;-42
2021/06/27 11:00:56;;;;;;;1.40;1.10;;;;;;;19.60;61.53;101490.28;5008694;28;20050;-41
2021/06/27 11:03:34;;;;;;;1.88;1.45;;;;;;;19.91;61.20;101484.13;5010563;28;20057;-43
2021/06/27 11:06:26;;;;;;;7.50;1.48;;;;;;;20.05;59.89;101490.66;5010432;28;20041;-41
2021/06/27 11:08:58;;;;;;;6.32;1.48;;;;;;;19.96;61.09;101486.59;5009090;28;20147;-41
2021/06/27 11:11:25;;;;;;;;;;;;;;;19.83;60.03;101477.66;5003287;28;20049;-40
2021/06/27 11:14:11;;;;;;;3.58;1.40;;;;;;;19.69;60.01;101482.34;5009930;28;19957;-40
2021/06/27 11:17:07;;;;;;;4.68;1.20;;;;;;;19.61;60.64;101481.50;5011736;28;20479;-41
2021/06/27 11:19:40;;;;;;;3.38;1.40;;;;;;;19.72;60.55;101482.41;5009506;28;20060;-40
2021/06/27 11:22:22;;;;;;;2.10;0.98;;;;;;;19.99;59.42;101477.34;5007211;28;20471;-41
2021/06/27 11:24:53;;;;;;;2.80;1.30;;;;;;;20.13;60.02;101474.63;5009662;28;20038;-41
2021/06/27 11:27:41;;;;;;;2.65;1.27;;;;;;;19.89;58.64;101470.47;5008445;28;20065;-43
2021/06/27 11:30:32;;;;;;;2.35;1.52;;;;;;;19.96;59.50;101458.47;5006530;28;20073;-41
2021/06/27 11:33:24;;;;;;;1.63;1.17;;;;;;;19.85;58.73;101468.84;5009021;28;20046;-40
2021/06/27 11:35:57;;;;;;;3.80;1.02;;;;;;;19.78;59.19;101458.34;5004438;28;20080;-40
2021/06/27 11:38:39;;;;;;;3.08;1.33;;;;;;;19.92;59.29;101466.06;5012678;28;20774;-45
2021/06/27 11:41:18;;;;;;;3.45;1.20;;;;;;;19.99;58.52;101458.47;4997550;28;20137;-41
2021/06/27 11:44:00;;;;;;;1.63;1.50;;;;;;;20.05;57.77;101468.16;4995905;28;20058;-42
2021/06/27 11:46:38;;;;;;;1.42;1.08;;;;;;;19.96;57.97;101469.72;5015028;28;20093;-40
2021/06/27 11:49:11;;;;;;;3.47;1.30;;;;;;;19.92;58.66;101475.31;4999642;28;20050;-41
2021/06/27 11:51:48;;;;;;;1.92;1.17;;;;;;;19.96;58.37;101470.50;4994654;28;20080;-40
2021/06/27 11:54:27;;;;;;;1.92;1.35;;;;;;;19.80;58.15;101464.38;5008429;28;20089;-41